Time;durP1;ratioP1;P1;durP2;ratioP2;P2;SDS_P1;SDS_P2;PMS_P1;PMS_P2;Temp;Humidity;BMP_temperature;BMP_pressure;BME280_temperature;BME280_humidity;BME280_pressure;Samples;Min_cycle;Max_cycle;Signal;HPM_P1;HPM_P2
2022/08/03 00:01:42;;;;;;;3.58;1.48;;;23.60;70.00;;;;;;4818216;29;20483;-76
2022/08/03 00:04:09;;;;;;;5.43;2.05;;;23.60;70.00;;;;;;4814542;29;20384;-76
2022/08/03 00:06:36;;;;;;;4.30;1.50;;;23.50;69.90;;;;;;4814789;29;20039;-76
2022/08/03 00:09:05;;;;;;;2.20;0.98;;;23.60;70.10;;;;;;4815248;29;20125;-76
2022/08/03 00:11:31;;;;;;;2.75;1.38;;;23.60;70.10;;;;;;4817865;29;20381;-76
2022/08/03 00:13:57;;;;;;;7.88;1.65;;;23.60;70.10;;;;;;4813741;29;20031;-76
2022/08/03 00:16:25;;;;;;;5.30;1.77;;;23.60;70.10;;;;;;4815250;29;20246;-76
2022/08/03 00:18:51;;;;;;;3.92;1.23;;;23.50;70.00;;;;;;4813150;29;20058;-76
2022/08/03 00:21:17;;;;;;;3.45;1.55;;;23.50;70.00;;;;;;4814297;29;20066;-76
2022/08/03 00:23:43;;;;;;;4.63;1.77;;;23.50;70.00;;;;;;4815034;29;20521;-76
2022/08/03 00:26:09;;;;;;;3.35;1.00;;;23.50;70.00;;;;;;4814477;29;20385;-75
2022/08/03 00:28:35;;;;;;;3.08;1.33;;;23.50;70.10;;;;;;4801639;29;20546;-75
2022/08/03 00:31:00;;;;;;;4.28;1.27;;;23.50;70.10;;;;;;4816537;29;20098;-76
2022/08/03 00:33:26;;;;;;;4.85;1.55;;;23.50;70.10;;;;;;4797285;29;20121;-76
2022/08/03 00:35:52;;;;;;;5.75;1.30;;;23.50;70.10;;;;;;4815746;29;20027;-75
2022/08/03 00:38:19;;;;;;;3.55;1.42;;;23.50;70.20;;;;;;4814084;29;20065;-75
2022/08/03 00:40:45;;;;;;;1.92;1.25;;;23.50;70.20;;;;;;4799030;29;20034;-76
2022/08/03 00:43:11;;;;;;;4.65;1.88;;;23.50;70.20;;;;;;4814257;29;20038;-76
2022/08/03 00:45:41;;;;;;;3.88;1.23;;;23.40;70.10;;;;;;4815832;29;20378;-76
2022/08/03 00:48:10;;;;;;;5.93;1.92;;;23.40;70.10;;;;;;4812929;29;20049;-75
2022/08/03 00:50:40;;;;;;;3.85;1.88;;;23.40;70.10;;;;;;4812756;29;20437;-76
2022/08/03 00:53:09;;;;;;;3.17;1.50;;;23.40;70.20;;;;;;4813478;29;20034;-76
2022/08/03 00:55:35;;;;;;;3.20;1.40;;;23.40;70.20;;;;;;4813517;29;20030;-75
2022/08/03 00:58:06;;;;;;;3.35;1.30;;;23.30;70.10;;;;;;4814222;29;20034;-76
2022/08/03 01:00:35;;;;;;;3.05;1.67;;;23.30;70.10;;;;;;4814262;29;20038;-76
2022/08/03 01:03:01;;;;;;;2.65;1.38;;;23.30;70.20;;;;;;4811694;29;20077;-75
2022/08/03 01:05:28;;;;;;;2.80;1.05;;;23.30;70.20;;;;;;4814492;29;20026;-74
2022/08/03 01:08:19;;;;;;;3.08;1.27;;;23.30;70.20;;;;;;4814692;29;20049;-75
2022/08/03 01:11:14;;;;;;;3.97;1.38;;;23.30;70.30;;;;;;4815686;29;20129;-75
2022/08/03 01:14:05;;;;;;;4.85;1.40;;;23.30;70.20;;;;;;4814396;29;20048;-75
2022/08/03 01:16:51;;;;;;;2.55;1.20;;;23.30;70.30;;;;;;4814498;29;20041;-77
2022/08/03 01:19:35;;;;;;;2.90;1.10;;;23.30;70.20;;;;;;4812830;29;20047;-76
2022/08/03 01:22:48;;;;;;;5.30;1.65;;;23.30;70.30;;;;;;4816425;29;20864;-77
2022/08/03 01:25:39;;;;;;;3.03;1.20;;;23.30;70.30;;;;;;4801472;29;20125;-77
2022/08/03 01:28:26;;;;;;;2.17;1.20;;;23.20;70.10;;;;;;4812233;29;20045;-76
2022/08/03 01:30:57;;;;;;;4.20;1.05;;;23.20;70.10;;;;;;4798794;29;20034;-77
2022/08/03 01:33:35;;;;;;;2.97;1.55;;;23.20;70.10;;;;;;4812604;29;20379;-76
2022/08/03 01:36:14;;;;;;;2.20;0.95;;;23.20;70.20;;;;;;4814898;29;20519;-76
2022/08/03 01:38:51;;;;;;;2.47;0.90;;;23.20;70.20;;;;;;4812259;29;20182;-76
2022/08/03 01:41:21;;;;;;;4.82;2.08;;;23.20;70.20;;;;;;4813722;29;20068;-76
2022/08/03 01:43:49;;;;;;;3.45;1.13;;;23.20;70.20;;;;;;4812396;29;20450;-76
2022/08/03 01:46:19;;;;;;;3.83;1.42;;;23.20;70.20;;;;;;4814448;29;20039;-76
2022/08/03 01:48:47;;;;;;;2.33;1.20;;;23.20;70.30;;;;;;4814630;29;20030;-76
2022/08/03 01:51:15;;;;;;;2.90;1.20;;;23.20;70.30;;;;;;4815127;29;20043;-76
2022/08/03 01:53:44;;;;;;;5.13;1.35;;;23.20;70.40;;;;;;4814833;29;20198;-77
2022/08/03 01:56:12;;;;;;;1.77;1.00;;;23.10;70.20;;;;;;4817254;29;20492;-77
2022/08/03 01:58:39;;;;;;;4.22;1.25;;;23.20;70.40;;;;;;4816341;29;20035;-76
2022/08/03 02:01:07;;;;;;;4.15;1.63;;;23.10;70.30;;;;;;4815320;29;20032;-77
2022/08/03 02:03:37;;;;;;;3.30;1.52;;;23.10;70.30;;;;;;4816480;29;20117;-76
2022/08/03 02:06:05;;;;;;;2.80;1.17;;;23.10;70.40;;;;;;4814239;29;20380;-76
2022/08/03 02:08:32;;;;;;;2.42;1.08;;;23.10;70.40;;;;;;4818068;29;20164;-77
2022/08/03 02:10:59;;;;;;;1.60;0.88;;;23.10;71.00;;;;;;4818168;29;20030;-76
2022/08/03 02:13:26;;;;;;;2.58;0.90;;;23.00;70.40;;;;;;4817524;29;20175;-76
2022/08/03 02:15:53;;;;;;;3.20;1.70;;;23.00;70.40;;;;;;4818276;29;20029;-76
2022/08/03 02:18:21;;;;;;;3.47;1.38;;;23.00;70.50;;;;;;4817469;29;20191;-76
2022/08/03 02:20:48;;;;;;;5.75;1.10;;;22.90;70.40;;;;;;4819643;29;20027;-77
2022/08/03 02:23:16;;;;;;;3.63;1.00;;;22.90;70.50;;;;;;4819174;29;20492;-75
2022/08/03 02:25:45;;;;;;;2.63;1.20;;;22.90;70.60;;;;;;4817854;29;20209;-76
2022/08/03 02:28:17;;;;;;;2.60;0.93;;;22.90;70.60;;;;;;4804716;29;20052;-76
2022/08/03 02:30:45;;;;;;;3.90;1.45;;;22.90;70.70;;;;;;4814484;29;20113;-76
2022/08/03 02:33:18;;;;;;;3.08;0.80;;;22.90;70.80;;;;;;4818981;29;20501;-76
2022/08/03 02:35:45;;;;;;;;;;;22.80;70.60;;;;;;4820379;29;20059;-76
2022/08/03 02:38:14;;;;;;;1.77;0.98;;;22.80;70.50;;;;;;4823608;29;19924;-78
2022/08/03 02:40:42;;;;;;;3.08;1.27;;;22.80;70.50;;;;;;4834263;29;20468;-77
2022/08/03 02:43:11;;;;;;;3.75;1.00;;;22.80;70.60;;;;;;4822824;29;20133;-76
2022/08/03 02:45:42;;;;;;;2.30;1.00;;;22.70;71.00;;;;;;4838741;29;20077;-77
2022/08/03 02:48:10;;;;;;;2.72;1.38;;;22.80;70.80;;;;;;4821690;29;20069;-76
2022/08/03 02:50:37;;;;;;;4.30;1.27;;;22.70;70.60;;;;;;4836487;29;20136;-76
2022/08/03 02:53:05;;;;;;;2.33;1.08;;;22.70;70.70;;;;;;4837120;29;20061;-76
2022/08/03 02:55:33;;;;;;;3.30;1.15;;;22.70;70.80;;;;;;4836110;29;20023;-76
2022/08/03 02:58:01;;;;;;;3.42;0.90;;;22.60;70.70;;;;;;4818532;29;20099;-76
2022/08/03 03:00:29;;;;;;;2.38;1.00;;;22.60;70.80;;;;;;4800891;29;20034;-76
2022/08/03 03:02:57;;;;;;;2.75;1.00;;;22.60;70.80;;;;;;4816217;29;20061;-76
2022/08/03 03:05:24;;;;;;;2.13;0.80;;;22.60;70.80;;;;;;4818064;29;20039;-76
2022/08/03 03:07:50;;;;;;;1.92;1.02;;;22.60;70.90;;;;;;4816876;29;20038;-76
2022/08/03 03:10:16;;;;;;;2.50;1.40;;;22.60;71.00;;;;;;4817374;29;20030;-77
2022/08/03 03:12:43;;;;;;;2.60;0.98;;;22.50;70.80;;;;;;4816021;29;20042;-76
2022/08/03 03:15:10;;;;;;;3.25;1.42;;;22.50;70.80;;;;;;4816921;29;20030;-76
2022/08/03 03:17:37;;;;;;;2.33;1.08;;;22.50;70.90;;;;;;4798843;29;20035;-76
2022/08/03 03:20:06;;;;;;;2.75;0.77;;;22.50;71.00;;;;;;4816724;29;20030;-76
2022/08/03 03:22:33;;;;;;;2.03;1.15;;;22.40;70.80;;;;;;4817027;29;20042;-77
2022/08/03 03:25:00;;;;;;;2.30;1.30;;;22.50;71.10;;;;;;4817441;29;20034;-77
2022/08/03 03:27:27;;;;;;;1.92;0.80;;;22.40;70.90;;;;;;4817695;29;20889;-77
2022/08/03 03:29:53;;;;;;;2.85;1.35;;;22.40;71.00;;;;;;4800259;29;20033;-77
2022/08/03 03:32:19;;;;;;;1.55;0.90;;;22.40;71.00;;;;;;4817170;29;20058;-77
2022/08/03 03:34:46;;;;;;;3.65;0.98;;;22.30;70.80;;;;;;4801804;29;20136;-77
2022/08/03 03:37:12;;;;;;;1.52;0.70;;;22.30;70.90;;;;;;4815941;29;20058;-77
2022/08/03 03:39:38;;;;;;;2.20;0.88;;;22.30;71.00;;;;;;4818493;29;20461;-76
2022/08/03 03:42:04;;;;;;;1.75;1.02;;;22.30;71.00;;;;;;4817873;29;20050;-76
2022/08/03 03:44:30;;;;;;;3.33;0.80;;;22.30;71.00;;;;;;4818382;29;20026;-77
2022/08/03 03:46:59;;;;;;;2.70;0.90;;;22.30;71.00;;;;;;4798720;29;20041;-77
2022/08/03 03:49:25;;;;;;;3.35;0.90;;;22.30;71.10;;;;;;4820921;29;20038;-76
2022/08/03 03:51:53;;;;;;;1.60;1.10;;;22.30;71.00;;;;;;4815873;29;20087;-77
2022/08/03 03:54:20;;;;;;;2.65;1.02;;;22.30;71.10;;;;;;4817599;29;20098;-76
2022/08/03 03:56:46;;;;;;;1.20;0.80;;;22.30;71.10;;;;;;4815709;29;20075;-77
2022/08/03 03:59:12;;;;;;;3.60;1.42;;;22.40;71.30;;;;;;4817021;29;20034;-77
2022/08/03 04:01:38;;;;;;;2.17;1.08;;;22.30;71.10;;;;;;4800003;29;20182;-76
2022/08/03 04:12:25;;;;;;;1.80;0.80;;;22.40;71.30;;;;;;4815859;29;20099;-77
2022/08/03 04:14:55;;;;;;;1.98;0.82;;;22.30;71.10;;;;;;4801081;29;20046;-76
2022/08/03 04:17:25;;;;;;;1.77;0.80;;;22.30;71.10;;;;;;4815752;29;20037;-77
2022/08/03 04:19:53;;;;;;;2.03;0.80;;;22.30;71.10;;;;;;4818961;29;20584;-77
2022/08/03 04:22:25;;;;;;;2.15;0.90;;;22.40;71.30;;;;;;4815957;29;20063;-76
2022/08/03 04:24:57;;;;;;;0.60;0.50;;;22.40;71.40;;;;;;4799796;29;20473;-76
2022/08/03 04:27:27;;;;;;;1.27;0.70;;;22.40;71.40;;;;;;4816093;29;20034;-76
2022/08/03 04:29:55;;;;;;;1.90;0.90;;;22.30;71.20;;;;;;4817702;29;20023;-77
2022/08/03 04:32:25;;;;;;;2.90;1.02;;;22.40;71.40;;;;;;4816489;29;20788;-77
2022/08/03 04:34:51;;;;;;;1.98;0.63;;;22.40;71.40;;;;;;4819052;29;20030;-76
2022/08/03 04:37:44;;;;;;;1.20;0.90;;;22.40;71.40;;;;;;4816225;29;20133;-76
2022/08/03 04:40:14;;;;;;;;;;;22.30;71.30;;;;;;4816497;29;20736;-77
2022/08/03 04:42:42;;;;;;;1.65;0.88;;;22.30;71.10;;;;;;4817389;29;19916;-76
2022/08/03 04:45:12;;;;;;;4.00;0.88;;;22.30;71.10;;;;;;4815884;29;20071;-77
2022/08/03 04:47:38;;;;;;;1.23;0.70;;;22.30;71.20;;;;;;4783639;29;20046;-76
2022/08/03 04:50:06;;;;;;;4.10;0.80;;;22.30;71.70;;;;;;4815635;29;20093;-77
2022/08/03 04:52:33;;;;;;;1.20;0.70;;;22.30;71.20;;;;;;4820404;29;20042;-77
2022/08/03 04:54:59;;;;;;;1.67;0.70;;;22.30;71.30;;;;;;4818857;29;20066;-77
2022/08/03 04:57:25;;;;;;;3.80;0.80;;;22.30;71.30;;;;;;4815662;29;20095;-77
2022/08/03 04:59:55;;;;;;;1.95;0.80;;;22.30;71.30;;;;;;4800022;29;20037;-76
2022/08/03 05:02:21;;;;;;;2.42;0.63;;;22.40;71.50;;;;;;4821504;29;20592;-77
2022/08/03 05:04:48;;;;;;;1.80;0.77;;;22.30;71.30;;;;;;4812829;29;20087;-76
2022/08/03 05:07:15;;;;;;;2.60;0.88;;;22.40;72.10;;;;;;4815796;29;20035;-77
2022/08/03 05:09:42;;;;;;;2.33;0.60;;;22.40;71.60;;;;;;4815874;29;20034;-76
2022/08/03 05:12:09;;;;;;;1.40;0.85;;;22.40;71.50;;;;;;4814162;29;20412;-77
2022/08/03 05:14:37;;;;;;;1.95;0.50;;;22.40;71.50;;;;;;4814710;29;20044;-76
2022/08/03 05:17:04;;;;;;;1.45;0.73;;;22.40;71.50;;;;;;4818691;29;20081;-75
2022/08/03 05:19:30;;;;;;;1.35;0.57;;;22.40;71.50;;;;;;4801900;29;20473;-76
2022/08/03 05:21:55;;;;;;;2.22;0.50;;;22.40;71.50;;;;;;4818209;29;20030;-78
2022/08/03 05:24:21;;;;;;;1.83;0.70;;;22.50;72.30;;;;;;4814972;29;20083;-77
2022/08/03 05:26:47;;;;;;;1.25;0.65;;;22.50;71.70;;;;;;4814423;29;20114;-78
2022/08/03 05:29:13;;;;;;;2.63;1.13;;;22.50;71.70;;;;;;4802657;29;20034;-79
2022/08/03 05:31:39;;;;;;;1.38;0.60;;;22.50;71.70;;;;;;4820643;29;20035;-78
2022/08/03 05:34:05;;;;;;;1.50;0.50;;;22.50;71.70;;;;;;4814330;29;20042;-78
2022/08/03 05:36:31;;;;;;;2.38;0.77;;;22.50;71.70;;;;;;4811676;29;20121;-78
2022/08/03 05:38:57;;;;;;;0.65;0.52;;;22.50;71.60;;;;;;4819230;29;20090;-77
2022/08/03 05:41:23;;;;;;;2.45;0.70;;;22.50;71.70;;;;;;4814965;29;20114;-78
2022/08/03 05:43:53;;;;;;;0.55;0.50;;;22.50;71.70;;;;;;4816523;29;20034;-79
2022/08/03 05:46:19;;;;;;;1.08;0.57;;;22.50;71.70;;;;;;4800557;29;20579;-82
2022/08/03 05:48:46;;;;;;;4.13;0.52;;;22.60;71.70;;;;;;4816282;29;20405;-82
2022/08/03 05:51:12;;;;;;;3.15;0.70;;;22.60;71.70;;;;;;4817971;29;20079;-86
2022/08/03 05:53:42;;;;;;;1.15;0.60;;;22.60;71.80;;;;;;4802229;29;20041;-86
2022/08/03 05:56:09;;;;;;;1.95;0.60;;;22.60;72.10;;;;;;4803586;29;20038;-94
2022/08/03 05:58:35;;;;;;;2.42;1.00;;;22.70;72.60;;;;;;4818003;29;20044;-79
2022/08/03 06:01:01;;;;;;;1.17;0.80;;;22.70;73.00;;;;;;4814582;29;20030;-87
2022/08/03 06:03:27;;;;;;;1.92;0.98;;;22.80;73.60;;;;;;4784578;29;20066;-85
2022/08/03 06:05:55;;;;;;;1.67;0.98;;;22.90;74.00;;;;;;4816948;29;20192;-85
2022/08/03 06:08:22;;;;;;;3.38;0.98;;;22.90;74.50;;;;;;4814810;29;20412;-80
2022/08/03 06:10:48;;;;;;;2.53;1.17;;;23.00;74.90;;;;;;4816089;29;20400;-82
2022/08/03 06:13:14;;;;;;;3.55;0.73;;;23.10;75.30;;;;;;4815819;29;20133;-82
2022/08/03 06:15:40;;;;;;;1.25;0.52;;;23.10;75.40;;;;;;4817395;29;20121;-83
2022/08/03 06:18:06;;;;;;;1.17;0.85;;;23.10;75.40;;;;;;4815580;29;20038;-83
2022/08/03 06:20:33;;;;;;;1.77;1.02;;;23.20;75.60;;;;;;4818897;29;20118;-84
2022/08/03 06:22:59;;;;;;;1.58;0.93;;;23.30;75.80;;;;;;4798523;29;20463;-82
2022/08/03 06:25:26;;;;;;;2.22;1.08;;;23.30;75.90;;;;;;4814963;29;20030;-85
2022/08/03 06:27:51;;;;;;;1.50;0.70;;;23.40;76.00;;;;;;4816261;29;20455;-87
2022/08/03 06:30:17;;;;;;;1.15;0.70;;;23.50;76.00;;;;;;4815759;29;20037;-88
2022/08/03 06:32:44;;;;;;;2.90;0.90;;;23.50;75.80;;;;;;4818119;29;20034;-79
2022/08/03 06:35:10;;;;;;;1.55;0.80;;;23.70;76.00;;;;;;4817217;29;20035;-77
2022/08/03 06:37:49;;;;;;;3.50;0.50;;;23.70;75.90;;;;;;4815752;29;20077;-77
2022/08/03 06:40:18;;;;;;;3.40;0.75;;;23.80;76.00;;;;;;4816466;29;20034;-78
2022/08/03 06:42:44;;;;;;;1.23;0.60;;;23.80;75.70;;;;;;4813883;29;20041;-78
2022/08/03 06:45:11;;;;;;;0.93;0.77;;;23.90;75.70;;;;;;4814551;29;20038;-78
2022/08/03 06:47:37;;;;;;;1.17;0.50;;;24.00;75.70;;;;;;4814527;29;20038;-78
2022/08/03 06:50:05;;;;;;;1.45;0.60;;;24.00;75.60;;;;;;4815007;29;20121;-78
2022/08/03 06:52:31;;;;;;;2.30;0.70;;;24.10;75.50;;;;;;4816039;29;20030;-77
2022/08/03 06:54:57;;;;;;;2.15;0.45;;;24.10;75.30;;;;;;4815899;29;20030;-78
2022/08/03 06:57:23;;;;;;;3.53;0.57;;;24.10;75.20;;;;;;4817468;29;20038;-78
2022/08/03 06:59:49;;;;;;;1.25;0.50;;;24.10;75.10;;;;;;4815827;29;20114;-79
2022/08/03 07:02:17;;;;;;;2.05;0.38;;;24.20;75.20;;;;;;4816015;29;20405;-76
2022/08/03 07:04:43;;;;;;;1.67;0.70;;;24.40;75.20;;;;;;4816305;29;20121;-77
2022/08/03 07:07:09;;;;;;;2.63;1.05;;;24.50;74.90;;;;;;4815525;29;20097;-77
2022/08/03 07:09:35;;;;;;;2.17;0.60;;;24.80;74.80;;;;;;4817442;29;20078;-79
2022/08/03 07:12:03;;;;;;;1.45;0.55;;;25.00;74.40;;;;;;4817540;29;20513;-78
2022/08/03 07:14:29;;;;;;;0.68;0.30;;;25.30;74.00;;;;;;4818591;29;20058;-78
2022/08/03 07:16:55;;;;;;;1.48;0.40;;;25.50;73.50;;;;;;4814492;29;20129;-78
2022/08/03 07:19:20;;;;;;;0.75;0.40;;;25.70;73.00;;;;;;4817265;29;20097;-78
2022/08/03 07:21:46;;;;;;;0.90;0.28;;;25.90;72.60;;;;;;4812675;29;20054;-78
2022/08/03 07:24:12;;;;;;;1.02;0.30;;;25.90;72.20;;;;;;4814579;29;20064;-77
2022/08/03 07:26:38;;;;;;;1.20;0.40;;;26.00;72.00;;;;;;4815236;29;20102;-78
2022/08/03 07:29:04;;;;;;;0.98;0.43;;;26.10;71.80;;;;;;4815404;29;20567;-77
2022/08/03 07:31:30;;;;;;;0.55;0.40;;;26.20;71.60;;;;;;4817120;29;20034;-78
2022/08/03 07:33:56;;;;;;;0.65;0.20;;;26.20;71.40;;;;;;4815474;29;20042;-77
2022/08/03 07:36:23;;;;;;;0.38;0.20;;;26.30;71.20;;;;;;4815253;29;20023;-77
2022/08/03 07:38:49;;;;;;;1.88;0.35;;;26.30;71.00;;;;;;4815341;29;20368;-77
2022/08/03 07:41:15;;;;;;;1.25;0.20;;;26.30;70.80;;;;;;4815249;29;20085;-78
2022/08/03 07:43:41;;;;;;;1.38;0.50;;;26.40;70.70;;;;;;4814826;29;20411;-77
2022/08/03 07:46:07;;;;;;;2.63;0.90;;;26.50;70.40;;;;;;4819100;29;20034;-77
2022/08/03 07:48:33;;;;;;;0.50;0.25;;;26.60;70.30;;;;;;4821953;29;20137;-77
2022/08/03 07:50:59;;;;;;;0.22;0.13;;;26.60;70.00;;;;;;4822393;29;20034;-75
2022/08/03 07:53:25;;;;;;;0.90;0.20;;;26.70;69.80;;;;;;4825349;29;20097;-75
2022/08/03 07:55:50;;;;;;;2.45;0.30;;;26.80;69.50;;;;;;4843021;29;20247;-78
2022/08/03 07:58:16;;;;;;;2.15;0.60;;;26.90;69.40;;;;;;4840322;29;20050;-77
2022/08/03 08:00:43;;;;;;;1.08;0.20;;;26.90;69.20;;;;;;4841520;29;20045;-78
2022/08/03 08:03:11;;;;;;;1.23;0.20;;;26.90;69.10;;;;;;4833772;29;20595;-74
2022/08/03 08:05:36;;;;;;;0.40;0.20;;;26.90;69.10;;;;;;4817315;29;20032;-75
2022/08/03 08:08:03;;;;;;;0.22;0.20;;;26.90;69.10;;;;;;4815793;29;20486;-74
2022/08/03 08:10:31;;;;;;;1.20;0.45;;;27.00;68.90;;;;;;4798941;29;20121;-76
2022/08/03 08:12:57;;;;;;;1.85;0.52;;;27.10;68.70;;;;;;4814452;29;20045;-75
2022/08/03 08:15:23;;;;;;;1.50;0.20;;;27.20;68.40;;;;;;4814768;29;20575;-75
2022/08/03 08:17:53;;;;;;;0.60;0.20;;;27.30;68.20;;;;;;4814653;29;20074;-75
2022/08/03 08:20:41;;;;;;;0.57;0.40;;;27.50;68.00;;;;;;4815695;29;20049;-75
2022/08/03 08:23:07;;;;;;;2.08;0.32;;;27.50;67.70;;;;;;4813779;29;20099;-75
2022/08/03 08:25:34;;;;;;;0.52;0.20;;;27.50;67.60;;;;;;4815267;29;20620;-75
2022/08/03 08:28:02;;;;;;;1.20;0.28;;;27.50;67.60;;;;;;4814230;29;20057;-79
2022/08/03 08:30:28;;;;;;;1.58;0.40;;;27.30;67.70;;;;;;4817574;29;20035;-78
2022/08/03 08:32:54;;;;;;;0.60;0.25;;;27.20;67.90;;;;;;4814889;29;20035;-77
2022/08/03 08:35:20;;;;;;;1.65;0.30;;;27.10;68.10;;;;;;4815439;29;20648;-78
2022/08/03 08:37:46;;;;;;;1.20;0.35;;;27.10;68.80;;;;;;4814195;29;20106;-78
2022/08/03 08:40:12;;;;;;;1.45;0.50;;;27.00;68.40;;;;;;4815344;29;20051;-77
2022/08/03 08:42:40;;;;;;;1.08;0.73;;;26.90;68.40;;;;;;4798885;29;20536;-77
2022/08/03 08:45:08;;;;;;;2.88;0.70;;;26.80;69.10;;;;;;4814864;29;20035;-78
2022/08/03 08:47:38;;;;;;;1.25;0.40;;;26.70;68.70;;;;;;4815004;29;20523;-77
2022/08/03 08:50:06;;;;;;;1.10;0.63;;;26.60;68.90;;;;;;4814623;29;20476;-77
2022/08/03 08:52:34;;;;;;;0.80;0.50;;;26.60;68.90;;;;;;4815385;29;20568;-76
2022/08/03 08:55:05;;;;;;;0.80;0.80;;;26.50;69.00;;;;;;4813554;29;20069;-76
2022/08/03 08:57:37;;;;;;;2.23;1.00;;;26.40;69.20;;;;;;4816149;29;20037;-73
2022/08/03 09:00:07;;;;;;;1.35;0.75;;;26.30;69.30;;;;;;4815689;29;20026;-75
2022/08/03 09:02:34;;;;;;;1.05;0.70;;;26.30;69.50;;;;;;4814839;29;20397;-77
2022/08/03 09:05:00;;;;;;;2.85;0.80;;;26.20;69.60;;;;;;4814201;29;20453;-78
2022/08/03 09:07:27;;;;;;;1.10;0.77;;;26.20;69.70;;;;;;4815812;29;20070;-77
2022/08/03 09:09:54;;;;;;;1.63;0.75;;;26.20;69.70;;;;;;4813593;29;20046;-76
2022/08/03 09:12:20;;;;;;;2.72;1.13;;;26.20;69.70;;;;;;4812017;29;20039;-78
2022/08/03 09:14:46;;;;;;;0.55;0.55;;;26.20;69.70;;;;;;4814114;29;20053;-75
2022/08/03 09:17:12;;;;;;;1.45;1.10;;;26.10;69.70;;;;;;4814804;29;20046;-76
2022/08/03 09:19:38;;;;;;;1.05;0.80;;;26.10;69.70;;;;;;4820080;29;20435;-75
2022/08/03 09:22:17;;;;;;;1.92;0.77;;;26.10;69.70;;;;;;4816464;29;20340;-75
2022/08/03 09:25:12;;;;;;;1.00;0.70;;;26.10;69.80;;;;;;4819745;29;20041;-76
2022/08/03 09:27:43;;;;;;;2.60;0.88;;;26.10;69.90;;;;;;4809812;29;20058;-75
2022/08/03 09:30:17;;;;;;;2.03;1.02;;;26.10;69.80;;;;;;4819629;29;20038;-75
2022/08/03 09:32:44;;;;;;;1.30;1.20;;;26.10;69.80;;;;;;4818841;29;20103;-75
2022/08/03 09:35:12;;;;;;;1.63;1.17;;;26.10;69.60;;;;;;4817833;29;20121;-78
2022/08/03 09:37:39;;;;;;;1.30;1.20;;;26.10;69.60;;;;;;4816827;29;20058;-78
2022/08/03 09:40:06;;;;;;;1.50;1.08;;;26.10;69.60;;;;;;4816854;29;20497;-77
2022/08/03 09:42:37;;;;;;;1.80;1.42;;;26.10;69.50;;;;;;4816140;29;20039;-79
2022/08/03 09:45:04;;;;;;;2.15;1.38;;;26.20;69.40;;;;;;4816209;29;20091;-78
2022/08/03 09:47:36;;;;;;;1.20;1.10;;;26.30;69.30;;;;;;4812700;29;20329;-77
2022/08/03 09:50:06;;;;;;;3.88;1.58;;;26.40;69.20;;;;;;4819848;29;20429;-76
2022/08/03 09:52:36;;;;;;;1.70;1.25;;;26.50;68.90;;;;;;4816887;29;20143;-78
2022/08/03 09:55:08;;;;;;;1.17;1.08;;;26.70;68.70;;;;;;4816955;29;20306;-77
2022/08/03 09:57:34;;;;;;;2.08;1.00;;;26.70;68.50;;;;;;4814923;29;20426;-76
2022/08/03 10:00:09;;;;;;;1.50;1.40;;;26.70;68.30;;;;;;4815796;29;20058;-77
2022/08/03 10:02:41;;;;;;;1.60;1.35;;;26.70;68.30;;;;;;4815151;29;20072;-77
2022/08/03 10:05:08;;;;;;;1.73;1.13;;;26.70;68.20;;;;;;4802240;29;20038;-77
2022/08/03 10:07:42;;;;;;;1.23;1.00;;;26.70;68.20;;;;;;4800983;29;20102;-75
2022/08/03 10:10:09;;;;;;;1.88;1.40;;;26.70;68.20;;;;;;4818863;29;20031;-76
2022/08/03 10:12:36;;;;;;;3.35;1.35;;;26.60;68.20;;;;;;4818396;29;20036;-77
2022/08/03 10:15:03;;;;;;;2.15;1.60;;;26.60;68.20;;;;;;4820195;29;20113;-83
2022/08/03 10:17:29;;;;;;;1.42;1.30;;;26.50;68.10;;;;;;4819064;29;20038;-77
2022/08/03 10:19:57;;;;;;;2.15;1.00;;;26.50;68.20;;;;;;4816516;29;20528;-76
2022/08/03 10:22:28;;;;;;;3.58;1.60;;;26.60;68.20;;;;;;4814383;29;20091;-78
2022/08/03 10:25:10;;;;;;;1.88;1.20;;;26.60;68.00;;;;;;4818565;29;20117;-78
2022/08/03 10:27:38;;;;;;;2.38;1.33;;;26.70;67.90;;;;;;4815646;29;20042;-78
2022/08/03 10:30:07;;;;;;;2.83;1.38;;;26.80;67.70;;;;;;4817561;29;20034;-77
2022/08/03 10:32:41;;;;;;;1.95;1.25;;;27.00;67.40;;;;;;4816321;29;20042;-80
2022/08/03 10:35:13;;;;;;;3.40;1.50;;;27.20;67.00;;;;;;4819949;29;20095;-78
2022/08/03 10:37:48;;;;;;;1.95;1.33;;;27.40;66.50;;;;;;4801933;29;20053;-80
2022/08/03 10:40:18;;;;;;;3.35;1.50;;;27.50;66.20;;;;;;4816451;29;20030;-78
2022/08/03 10:42:45;;;;;;;4.93;1.92;;;27.50;66.00;;;;;;4815775;29;20467;-78
2022/08/03 10:45:21;;;;;;;2.60;1.45;;;27.50;65.80;;;;;;4818328;29;20077;-78
2022/08/03 10:47:48;;;;;;;2.92;1.23;;;27.50;65.60;;;;;;4814590;29;20082;-80
2022/08/03 10:50:15;;;;;;;2.60;1.52;;;27.60;65.60;;;;;;4816141;29;20034;-77
2022/08/03 10:53:06;;;;;;;5.22;1.60;;;27.70;65.40;;;;;;4799833;29;20303;-76
2022/08/03 10:58:44;;;;;;;1.83;1.23;;;28.00;64.70;;;;;;4817800;29;20121;-77
2022/08/03 11:01:11;;;;;;;3.15;1.67;;;28.10;64.10;;;;;;4814564;29;20034;-79
2022/08/03 11:03:56;;;;;;;3.33;1.65;;;28.20;64.10;;;;;;4799430;29;20035;-79
2022/08/03 11:06:24;;;;;;;2.72;1.50;;;28.20;63.70;;;;;;4815738;29;20034;-79
2022/08/03 11:09:08;;;;;;;3.67;1.60;;;28.20;63.60;;;;;;4816994;29;20129;-75
2022/08/03 11:11:42;;;;;;;4.85;1.90;;;28.30;63.20;;;;;;4812316;29;20050;-77
2022/08/03 11:14:17;;;;;;;3.30;1.70;;;28.50;63.20;;;;;;4798666;29;20034;-76
2022/08/03 11:16:49;;;;;;;2.58;1.75;;;28.70;62.90;;;;;;4798154;29;20030;-77
2022/08/03 11:19:21;;;;;;;2.33;1.30;;;28.80;62.50;;;;;;4799194;29;20107;-77
2022/08/03 11:21:50;;;;;;;2.10;1.50;;;29.00;62.30;;;;;;4809589;29;20409;-77
2022/08/03 11:24:42;;;;;;;4.55;1.83;;;29.20;62.00;;;;;;4814201;29;20814;-78
2022/08/03 11:27:14;;;;;;;4.65;1.42;;;29.30;61.60;;;;;;4814473;29;20061;-78
2022/08/03 11:30:09;;;;;;;3.00;1.38;;;29.40;61.50;;;;;;4815527;29;20382;-77
2022/08/03 11:32:38;;;;;;;3.85;1.60;;;29.60;61.20;;;;;;4799845;29;20031;-77
2022/08/03 11:35:29;;;;;;;4.97;1.80;;;29.70;61.00;;;;;;4814026;29;20057;-79
2022/08/03 11:37:59;;;;;;;3.42;1.38;;;29.80;60.70;;;;;;4806650;29;20067;-77
2022/08/03 11:40:37;;;;;;;2.38;1.52;;;30.00;60.60;;;;;;4813108;29;20181;-77
2022/08/03 11:43:05;;;;;;;2.63;1.38;;;30.10;60.20;;;;;;4814236;29;20233;-77
2022/08/03 11:45:32;;;;;;;3.28;1.20;;;30.30;60.00;;;;;;4814589;29;20051;-77
2022/08/03 11:48:01;;;;;;;3.67;1.40;;;30.50;59.70;;;;;;4813011;29;20062;-76
2022/08/03 11:50:36;;;;;;;2.20;1.10;;;30.70;59.30;;;;;;4814982;29;20037;-76
2022/08/03 11:53:04;;;;;;;2.55;1.60;;;30.90;58.90;;;;;;4815868;29;20031;-76
2022/08/03 11:55:30;;;;;;;3.15;1.80;;;31.10;58.60;;;;;;4816258;29;20030;-79
2022/08/03 11:57:59;;;;;;;2.22;1.38;;;31.20;58.20;;;;;;4813834;29;20038;-78
2022/08/03 12:00:30;;;;;;;3.30;1.30;;;31.40;57.80;;;;;;4818145;29;20521;-78
2022/08/03 12:03:00;;;;;;;3.42;1.45;;;31.70;57.60;;;;;;4814137;29;20038;-79
2022/08/03 12:05:41;;;;;;;2.20;1.40;;;31.80;57.20;;;;;;4813933;29;20388;-78
2022/08/03 12:08:08;;;;;;;2.50;1.27;;;31.90;56.80;;;;;;4815486;29;20050;-77
2022/08/03 12:10:35;;;;;;;3.33;1.15;;;32.00;56.70;;;;;;4812253;29;20057;-78
2022/08/03 12:13:04;;;;;;;3.53;1.23;;;32.10;56.50;;;;;;4796220;29;20172;-78
2022/08/03 12:15:34;;;;;;;3.15;1.40;;;32.20;56.30;;;;;;4815108;29;20042;-77
2022/08/03 12:18:02;;;;;;;1.75;1.00;;;32.30;56.10;;;;;;4812899;29;20040;-77
2022/08/03 12:20:31;;;;;;;2.30;1.58;;;32.40;55.90;;;;;;4815522;29;20056;-78
2022/08/03 12:23:05;;;;;;;2.92;1.80;;;32.60;55.50;;;;;;4812536;29;20034;-78
2022/08/03 12:25:33;;;;;;;1.73;1.23;;;32.70;55.10;;;;;;4818216;29;20117;-78
2022/08/03 12:28:22;;;;;;;4.43;1.80;;;32.80;54.90;;;;;;4796868;29;20348;-78
2022/08/03 12:30:50;;;;;;;4.53;1.83;;;33.00;54.50;;;;;;4817283;29;20038;-78
2022/08/03 12:33:19;;;;;;;2.38;1.52;;;33.20;54.50;;;;;;4815764;29;20038;-76
2022/08/03 12:35:47;;;;;;;2.83;1.60;;;33.30;54.00;;;;;;4816200;29;20050;-76
2022/08/03 12:38:17;;;;;;;4.50;1.83;;;33.40;53.80;;;;;;4816551;29;20057;-76
2022/08/03 12:40:43;;;;;;;2.17;1.25;;;33.50;53.50;;;;;;4818669;29;20150;-76
2022/08/03 12:43:11;;;;;;;2.28;1.35;;;33.70;53.40;;;;;;4797504;29;20562;-76
2022/08/03 12:45:38;;;;;;;3.30;1.48;;;33.70;53.10;;;;;;4814291;29;20182;-76
2022/08/03 12:48:10;;;;;;;5.00;1.70;;;33.80;52.90;;;;;;4813145;29;20039;-76
2022/08/03 12:50:37;;;;;;;3.08;1.40;;;33.90;52.70;;;;;;4816581;29;20125;-76
2022/08/03 12:53:08;;;;;;;1.55;1.30;;;34.10;52.50;;;;;;4813880;29;20026;-76
2022/08/03 12:55:35;;;;;;;3.53;1.50;;;34.20;52.20;;;;;;4814791;29;20038;-77
2022/08/03 12:58:06;;;;;;;3.97;1.38;;;34.30;51.90;;;;;;4814196;29;20393;-79
2022/08/03 13:00:33;;;;;;;3.63;1.67;;;34.50;51.10;;;;;;4800137;29;20031;-78
2022/08/03 13:03:01;;;;;;;3.15;1.60;;;34.60;50.80;;;;;;4798492;29;20501;-77
2022/08/03 13:05:27;;;;;;;2.42;1.50;;;34.70;50.50;;;;;;4815957;29;20035;-79
2022/08/03 13:07:53;;;;;;;3.83;1.40;;;34.80;50.10;;;;;;4817347;29;20135;-79
2022/08/03 13:10:32;;;;;;;1.92;0.98;;;34.90;49.80;;;;;;4816809;29;20042;-78